Time;durP1;ratioP1;P1;durP2;ratioP2;P2;SDS_P1;SDS_P2;PMS_P1;PMS_P2;Temp;Humidity;BMP_temperature;BMP_pressure;BME280_temperature;BME280_humidity;BME280_pressure;Samples;Min_cycle;Max_cycle;Signal;HPM_P1;HPM_P2
2024/03/18 00:00:35;;;;;;;7.10;3.67;;;13.00;99.90;;;;;;5075756;28;20445;-57
2024/03/18 00:03:02;;;;;;;3.83;3.30;;;13.00;99.90;;;;;;5075611;28;20444;-57
2024/03/18 00:05:29;;;;;;;4.47;3.63;;;13.00;99.90;;;;;;5075656;28;20452;-57
2024/03/18 00:07:56;;;;;;;3.57;3.27;;;13.00;99.90;;;;;;5075496;28;20563;-57
2024/03/18 00:10:23;;;;;;;4.47;3.40;;;13.00;99.90;;;;;;5075511;28;20488;-58
2024/03/18 00:12:50;;;;;;;4.90;3.73;;;13.00;99.90;;;;;;5075784;28;20543;-58
2024/03/18 00:15:18;;;;;;;5.63;4.20;;;12.90;99.90;;;;;;5075712;28;20449;-58
2024/03/18 00:17:45;;;;;;;4.57;3.67;;;13.00;99.90;;;;;;5075683;28;20836;-57
2024/03/18 00:20:12;;;;;;;7.90;4.10;;;13.00;99.90;;;;;;5075359;28;20444;-57
2024/03/18 00:22:40;;;;;;;4.23;3.67;;;12.90;99.90;;;;;;5075820;28;20440;-57
2024/03/18 00:25:08;;;;;;;4.60;3.40;;;12.90;99.90;;;;;;5075712;28;20445;-57
2024/03/18 00:27:36;;;;;;;5.40;3.97;;;12.90;99.90;;;;;;5075598;28;20461;-57
2024/03/18 00:30:06;;;;;;;5.10;3.67;;;12.90;99.90;;;;;;5075474;28;20476;-57
2024/03/18 00:32:34;;;;;;;4.93;3.93;;;12.90;99.90;;;;;;5074772;28;20449;-57
2024/03/18 00:35:01;;;;;;;4.90;3.47;;;12.90;99.90;;;;;;5075006;28;20445;-57
2024/03/18 00:37:29;;;;;;;4.10;3.67;;;12.90;99.90;;;;;;5074908;28;20444;-57
2024/03/18 00:39:56;;;;;;;6.30;3.63;;;12.90;99.90;;;;;;5075002;28;20441;-58
2024/03/18 00:42:21;;;;;;;3.83;3.47;;;13.00;99.90;;;;;;5074980;28;20452;-57
2024/03/18 00:44:48;;;;;;;4.70;4.30;;;12.90;99.90;;;;;;5074848;28;20448;-57
2024/03/18 00:47:15;;;;;;;5.70;4.13;;;12.90;99.90;;;;;;5074662;28;20207;-57
2024/03/18 00:49:43;;;;;;;4.10;3.70;;;12.90;99.90;;;;;;5074754;28;20484;-57
2024/03/18 00:52:11;;;;;;;6.40;4.20;;;12.90;99.90;;;;;;5074443;28;20452;-57
2024/03/18 00:54:39;;;;;;;6.40;3.70;;;12.80;99.90;;;;;;5073902;28;20448;-57
2024/03/18 00:57:06;;;;;;;4.50;3.87;;;12.90;99.90;;;;;;5073281;28;20460;-58
2024/03/18 00:59:33;;;;;;;7.77;4.93;;;12.80;99.90;;;;;;5074250;28;20465;-57
2024/03/18 01:01:59;;;;;;;5.30;3.43;;;12.80;99.90;;;;;;5074501;28;20436;-57
2024/03/18 01:04:26;;;;;;;6.87;4.40;;;12.90;99.90;;;;;;5074305;28;20437;-57
2024/03/18 01:06:55;;;;;;;5.83;3.80;;;12.90;99.90;;;;;;5074268;28;20476;-58
2024/03/18 01:09:23;;;;;;;4.93;4.17;;;12.90;99.90;;;;;;5074216;28;20471;-58
2024/03/18 01:11:50;;;;;;;8.10;4.13;;;12.90;99.90;;;;;;5074238;28;20511;-58
2024/03/18 01:14:16;;;;;;;4.60;4.07;;;13.00;99.90;;;;;;5073827;28;20456;-58
2024/03/18 01:16:43;;;;;;;5.97;4.73;;;13.00;99.90;;;;;;5073852;28;20463;-57
2024/03/18 01:19:10;;;;;;;6.80;5.07;;;12.90;99.90;;;;;;5074091;28;20468;-57
2024/03/18 01:21:37;;;;;;;4.97;4.47;;;12.90;99.90;;;;;;5074085;28;20826;-58
2024/03/18 01:24:06;;;;;;;7.10;5.00;;;13.00;99.90;;;;;;5074084;28;20455;-58
2024/03/18 01:26:33;;;;;;;6.50;5.10;;;13.00;99.90;;;;;;5073766;28;20938;-58
2024/03/18 01:28:59;;;;;;;6.60;5.13;;;13.00;99.90;;;;;;5073624;28;20831;-58
2024/03/18 01:31:27;;;;;;;5.43;4.70;;;13.00;99.90;;;;;;5073887;28;20512;-58
2024/03/18 01:33:54;;;;;;;6.70;3.93;;;13.00;99.90;;;;;;5073718;28;20448;-57
2024/03/18 01:36:20;;;;;;;5.40;4.90;;;13.00;99.90;;;;;;5073841;28;20459;-58
2024/03/18 01:38:47;;;;;;;5.80;4.50;;;13.00;99.90;;;;;;5073329;28;20843;-58
2024/03/18 01:41:16;;;;;;;5.43;4.93;;;13.00;99.90;;;;;;5073904;28;20475;-58
2024/03/18 01:43:43;;;;;;;4.77;4.37;;;13.00;99.90;;;;;;5074143;28;20484;-57
2024/03/18 01:46:17;;;;;;;6.67;4.60;;;13.00;99.90;;;;;;5073432;28;20455;-57
2024/03/18 01:48:44;;;;;;;6.13;5.27;;;13.00;99.90;;;;;;5073708;28;20467;-57
2024/03/18 01:51:12;;;;;;;6.43;4.30;;;13.00;99.90;;;;;;5073333;28;20476;-57
2024/03/18 01:53:40;;;;;;;5.43;4.87;;;13.00;99.90;;;;;;5073354;28;20894;-57
2024/03/18 01:56:10;;;;;;;9.27;4.30;;;13.00;99.90;;;;;;5073615;28;20876;-57
2024/03/18 01:58:40;;;;;;;6.50;4.90;;;13.00;99.90;;;;;;5073706;28;20468;-57
2024/03/18 02:01:07;;;;;;;8.90;5.37;;;13.00;99.90;;;;;;5073715;28;20425;-57
2024/03/18 02:03:35;;;;;;;6.13;4.40;;;13.00;99.90;;;;;;5073546;28;20494;-57
2024/03/18 02:06:02;;;;;;;4.73;4.07;;;13.00;99.90;;;;;;5073950;28;20448;-57
2024/03/18 02:08:29;;;;;;;5.93;4.53;;;13.00;99.90;;;;;;5072482;28;20473;-57
2024/03/18 02:10:56;;;;;;;6.30;4.63;;;13.00;99.90;;;;;;5073326;28;21028;-57
2024/03/18 02:13:22;;;;;;;6.43;4.00;;;13.00;99.90;;;;;;5073584;28;20525;-57
2024/03/18 02:15:50;;;;;;;5.93;4.20;;;13.00;99.90;;;;;;5073014;28;20539;-57
2024/03/18 02:18:17;;;;;;;5.70;5.00;;;13.00;99.90;;;;;;5073199;28;20467;-57
2024/03/18 02:20:44;;;;;;;7.60;5.60;;;12.90;99.90;;;;;;5073279;28;20445;-57
2024/03/18 02:23:13;;;;;;;8.40;4.83;;;12.90;99.90;;;;;;5073266;28;20873;-57
2024/03/18 02:25:42;;;;;;;5.00;4.60;;;12.90;99.90;;;;;;5073173;28;20544;-57
2024/03/18 02:28:09;;;;;;;5.60;4.93;;;12.90;99.90;;;;;;5073073;28;20476;-57
2024/03/18 02:30:36;;;;;;;11.30;5.03;;;12.90;99.90;;;;;;5073093;28;20480;-57
2024/03/18 02:33:03;;;;;;;4.43;3.90;;;12.90;99.90;;;;;;5073198;28;20859;-57
2024/03/18 02:35:30;;;;;;;5.47;4.93;;;12.90;99.90;;;;;;5073158;28;20450;-57
2024/03/18 02:37:57;;;;;;;5.33;4.83;;;12.90;99.90;;;;;;5072753;28;20867;-57
2024/03/18 02:40:25;;;;;;;5.20;4.70;;;12.90;99.90;;;;;;5073166;28;20454;-57
2024/03/18 02:42:52;;;;;;;6.90;4.20;;;13.00;99.90;;;;;;5073065;28;20536;-57
2024/03/18 02:45:19;;;;;;;8.13;5.20;;;12.90;99.90;;;;;;5072976;28;20444;-57
2024/03/18 02:47:45;;;;;;;8.13;4.93;;;13.00;99.90;;;;;;5072983;28;20475;-57
2024/03/18 02:50:14;;;;;;;6.63;4.60;;;13.00;99.90;;;;;;5073423;28;20800;-57
2024/03/18 02:52:42;;;;;;;5.43;4.93;;;13.00;99.90;;;;;;5072596;28;20939;-57
2024/03/18 02:55:09;;;;;;;8.77;4.00;;;13.00;99.90;;;;;;5072996;28;20491;-57
2024/03/18 02:57:37;;;;;;;7.13;5.13;;;13.00;99.90;;;;;;5072451;28;20482;-57
2024/03/18 03:00:06;;;;;;;5.07;4.57;;;13.00;99.90;;;;;;5072871;28;20440;-57
2024/03/18 03:02:33;;;;;;;8.30;5.40;;;13.00;99.90;;;;;;5072865;28;20440;-57
2024/03/18 03:05:00;;;;;;;6.63;4.90;;;13.00;99.90;;;;;;5072515;28;20449;-57
2024/03/18 03:07:27;;;;;;;5.27;4.77;;;13.00;99.90;;;;;;5072748;28;20444;-57
2024/03/18 03:09:54;;;;;;;7.03;4.80;;;12.90;99.90;;;;;;5072909;28;20519;-57
2024/03/18 03:12:21;;;;;;;6.20;4.97;;;13.00;99.90;;;;;;5072668;28;20486;-57
2024/03/18 03:14:49;;;;;;;5.70;4.63;;;12.90;99.90;;;;;;5072354;28;20557;-57
2024/03/18 03:17:16;;;;;;;9.23;6.00;;;13.00;99.90;;;;;;5072638;28;20470;-57
2024/03/18 03:19:43;;;;;;;9.00;6.07;;;13.00;99.90;;;;;;5072810;28;20507;-57
2024/03/18 03:22:10;;;;;;;8.20;7.10;;;13.00;99.90;;;;;;5076509;28;20436;-57
2024/03/18 03:24:36;;;;;;;8.70;7.37;;;12.90;99.90;;;;;;5076071;28;20446;-57
2024/03/18 03:27:03;;;;;;;9.93;7.50;;;13.00;99.90;;;;;;5076022;28;20452;-57
2024/03/18 03:29:30;;;;;;;9.43;8.20;;;13.00;99.90;;;;;;5076173;28;20464;-57
2024/03/18 03:31:58;;;;;;;10.33;9.27;;;13.00;99.90;;;;;;5075986;28;21002;-57
2024/03/18 03:34:25;;;;;;;11.30;9.83;;;13.00;99.90;;;;;;5076431;28;20440;-57
2024/03/18 03:36:52;;;;;;;10.47;9.47;;;13.00;99.90;;;;;;5076006;28;20444;-57
2024/03/18 03:39:19;;;;;;;12.60;11.30;;;13.00;99.90;;;;;;5075746;28;20468;-57
2024/03/18 03:41:46;;;;;;;10.20;9.17;;;13.00;99.90;;;;;;5075910;28;20942;-57
2024/03/18 03:44:14;;;;;;;10.70;9.70;;;13.00;99.90;;;;;;5076087;28;20456;-57
2024/03/18 03:46:40;;;;;;;10.07;8.90;;;13.00;99.90;;;;;;5075681;28;21076;-57
2024/03/18 03:49:09;;;;;;;10.50;9.47;;;13.00;99.90;;;;;;5075902;28;20468;-57
2024/03/18 03:51:36;;;;;;;10.57;9.63;;;13.00;99.90;;;;;;5075741;28;20480;-57
2024/03/18 03:54:03;;;;;;;15.23;9.90;;;13.00;99.90;;;;;;5075832;28;20440;-57
2024/03/18 03:56:30;;;;;;;11.87;10.77;;;13.00;99.90;;;;;;5075592;28;20468;-57
2024/03/18 03:58:57;;;;;;;12.27;11.03;;;13.00;99.90;;;;;;5075455;28;20526;-57
2024/03/18 04:01:24;;;;;;;11.43;9.03;;;13.00;99.90;;;;;;5075511;28;20535;-57
2024/03/18 04:03:51;;;;;;;11.50;10.40;;;12.90;99.90;;;;;;5075650;28;20511;-57
2024/03/18 04:06:19;;;;;;;12.20;11.00;;;13.00;99.90;;;;;;5075570;28;20445;-57
2024/03/18 04:08:46;;;;;;;11.80;10.60;;;13.00;99.90;;;;;;5075405;28;20464;-57
2024/03/18 04:11:13;;;;;;;11.67;10.57;;;13.00;99.90;;;;;;5075429;28;20499;-57
2024/03/18 04:13:39;;;;;;;11.30;10.20;;;13.00;99.90;;;;;;5075562;28;20822;-57
2024/03/18 04:16:07;;;;;;;12.37;10.67;;;13.00;99.90;;;;;;5075475;28;20440;-57
2024/03/18 04:18:35;;;;;;;11.20;10.07;;;13.00;99.90;;;;;;5075424;28;20907;-57
2024/03/18 04:21:03;;;;;;;10.90;9.70;;;13.00;99.90;;;;;;5075372;28;20465;-57
2024/03/18 04:23:32;;;;;;;12.10;11.00;;;13.00;99.90;;;;;;5075307;28;20498;-57
2024/03/18 04:26:00;;;;;;;11.27;10.17;;;12.90;99.90;;;;;;5075671;28;20508;-57
2024/03/18 04:28:28;;;;;;;13.77;12.43;;;12.90;99.90;;;;;;5075117;28;20464;-57
2024/03/18 04:30:54;;;;;;;13.83;12.57;;;12.90;99.90;;;;;;5075424;28;20855;-57
2024/03/18 04:33:21;;;;;;;13.53;12.20;;;12.90;99.90;;;;;;5074212;28;20824;-57
2024/03/18 04:35:48;;;;;;;14.90;12.47;;;12.90;99.90;;;;;;5075135;28;20455;-57
2024/03/18 04:38:15;;;;;;;15.40;13.90;;;12.90;99.90;;;;;;5075016;28;20460;-57
2024/03/18 04:40:43;;;;;;;14.20;12.33;;;12.90;99.90;;;;;;5075161;28;20449;-57
2024/03/18 04:43:10;;;;;;;14.23;12.83;;;12.90;99.90;;;;;;5075049;28;20444;-57
2024/03/18 04:45:37;;;;;;;14.40;13.00;;;12.90;99.90;;;;;;5074862;28;20532;-57
2024/03/18 04:48:04;;;;;;;14.40;12.90;;;12.90;99.90;;;;;;5075058;28;20472;-57
2024/03/18 04:50:31;;;;;;;15.70;14.10;;;12.90;99.90;;;;;;5074809;28;20445;-57
2024/03/18 04:52:58;;;;;;;14.47;12.90;;;12.80;99.90;;;;;;5075297;28;20484;-57
2024/03/18 04:55:26;;;;;;;15.67;13.37;;;12.80;99.90;;;;;;5074859;28;20472;-57
2024/03/18 04:57:55;;;;;;;16.87;15.17;;;12.80;99.90;;;;;;5074277;28;20483;-57
2024/03/18 05:00:24;;;;;;;15.93;14.20;;;12.80;99.90;;;;;;5074590;28;20834;-57
2024/03/18 05:02:51;;;;;;;14.50;13.00;;;12.80;99.90;;;;;;5074256;28;20934;-57
2024/03/18 05:05:18;;;;;;;20.93;13.50;;;12.80;99.90;;;;;;5074514;28;20448;-57
2024/03/18 05:07:45;;;;;;;15.37;13.77;;;12.80;99.90;;;;;;5074217;28;20461;-57
2024/03/18 05:10:16;;;;;;;15.27;13.77;;;12.80;99.90;;;;;;5074306;28;20447;-57
2024/03/18 05:12:43;;;;;;;16.17;14.57;;;12.70;99.90;;;;;;5073955;28;20807;-57
2024/03/18 05:15:11;;;;;;;16.60;14.90;;;12.70;99.90;;;;;;5074343;28;20523;-57
2024/03/18 05:17:38;;;;;;;15.07;13.47;;;12.70;99.90;;;;;;5073796;28;20470;-57
2024/03/18 05:20:11;;;;;;;18.60;14.60;;;12.70;99.90;;;;;;5074731;28;20471;-57
2024/03/18 05:22:38;;;;;;;17.00;14.50;;;12.60;99.90;;;;;;5073885;28;20990;-57
2024/03/18 05:25:08;;;;;;;20.40;16.20;;;12.60;99.90;;;;;;5073823;28;20532;-57
2024/03/18 05:27:35;;;;;;;15.33;13.40;;;12.60;99.90;;;;;;5074001;28;20478;-57
2024/03/18 05:30:02;;;;;;;16.50;13.90;;;12.60;99.90;;;;;;5073522;28;20795;-57
2024/03/18 05:32:30;;;;;;;15.13;13.37;;;12.60;99.90;;;;;;5073914;28;20480;-57
2024/03/18 05:34:57;;;;;;;17.17;14.67;;;12.60;99.90;;;;;;5073946;28;20448;-57
2024/03/18 05:37:25;;;;;;;17.90;14.83;;;12.60;99.90;;;;;;5073891;28;20498;-57
2024/03/18 05:39:52;;;;;;;17.27;14.90;;;12.60;99.90;;;;;;5073880;28;20502;-57
2024/03/18 05:42:19;;;;;;;19.50;14.67;;;12.60;99.90;;;;;;5073459;28;20451;-57
2024/03/18 05:44:46;;;;;;;16.20;13.70;;;12.60;99.90;;;;;;5073753;28;20536;-57
2024/03/18 05:47:12;;;;;;;15.40;13.30;;;12.60;99.90;;;;;;5073639;28;20445;-57
2024/03/18 05:49:41;;;;;;;15.60;14.00;;;12.60;99.90;;;;;;5073481;28;20468;-57
2024/03/18 05:52:08;;;;;;;14.73;12.53;;;12.60;99.90;;;;;;5073232;28;20487;-57
2024/03/18 05:54:35;;;;;;;16.83;14.10;;;12.60;99.90;;;;;;5073572;28;20543;-57
2024/03/18 05:57:02;;;;;;;15.17;13.57;;;12.60;99.90;;;;;;5073165;28;20455;-57
2024/03/18 05:59:29;;;;;;;17.53;14.80;;;12.60;99.90;;;;;;5073486;28;20514;-57
2024/03/18 06:01:56;;;;;;;17.40;15.20;;;12.60;99.90;;;;;;5073947;28;20447;-57
2024/03/18 06:04:22;;;;;;;21.53;17.07;;;12.60;99.90;;;;;;5073258;28;20459;-57
2024/03/18 06:06:51;;;;;;;17.33;13.30;;;12.60;99.90;;;;;;5073477;28;20449;-57
2024/03/18 06:09:18;;;;;;;17.53;15.47;;;12.60;99.90;;;;;;5072970;28;20468;-57
2024/03/18 06:11:45;;;;;;;19.23;14.20;;;12.60;99.90;;;;;;5074033;28;20481;-57
2024/03/18 06:14:12;;;;;;;15.17;13.37;;;12.60;99.90;;;;;;5073066;28;20943;-57
2024/03/18 06:16:39;;;;;;;18.17;15.50;;;12.60;99.90;;;;;;5073287;28;20548;-57
2024/03/18 06:19:06;;;;;;;15.60;13.80;;;12.60;99.90;;;;;;5072965;28;20882;-57
2024/03/18 06:21:39;;;;;;;17.03;12.63;;;12.70;99.90;;;;;;5073131;28;20532;-57
2024/03/18 06:24:17;;;;;;;16.90;12.00;;;12.70;99.90;;;;;;5073413;28;20433;-56
2024/03/18 06:26:43;;;;;;;15.20;11.33;;;12.70;99.90;;;;;;5073168;28;20482;-57
2024/03/18 06:29:10;;;;;;;16.33;14.30;;;12.70;99.90;;;;;;5073040;28;20804;-57
2024/03/18 06:31:37;;;;;;;19.13;14.40;;;12.70;99.90;;;;;;5072997;28;20835;-57
2024/03/18 06:34:06;;;;;;;16.00;12.53;;;12.70;99.90;;;;;;5073158;28;20456;-57
2024/03/18 06:36:34;;;;;;;19.00;14.27;;;12.70;99.90;;;;;;5072817;28;20455;-57
2024/03/18 06:39:01;;;;;;;18.27;14.90;;;12.70;99.90;;;;;;5073040;28;20467;-57
2024/03/18 06:41:30;;;;;;;14.70;12.00;;;12.70;99.90;;;;;;5073170;28;20500;-57
2024/03/18 06:43:57;;;;;;;17.53;12.63;;;12.70;99.90;;;;;;5073093;28;20445;-57
2024/03/18 06:46:24;;;;;;;21.70;15.70;;;12.80;99.90;;;;;;5072676;28;21005;-57
2024/03/18 06:48:50;;;;;;;17.37;14.70;;;12.80;99.90;;;;;;5072904;28;20460;-57
2024/03/18 06:51:17;;;;;;;16.30;12.67;;;12.80;99.90;;;;;;5072941;28;20448;-57
2024/03/18 06:53:44;;;;;;;18.60;13.67;;;12.90;99.90;;;;;;5073165;28;20440;-57
2024/03/18 06:56:11;;;;;;;14.83;12.60;;;12.90;99.90;;;;;;5075702;28;20464;-57
2024/03/18 06:58:40;;;;;;;20.17;14.10;;;12.90;99.90;;;;;;5077017;28;20472;-57
2024/03/18 07:01:08;;;;;;;15.87;13.00;;;13.00;99.90;;;;;;5076935;28;20445;-57
2024/03/18 07:03:37;;;;;;;24.53;15.17;;;13.10;99.90;;;;;;5076623;28;20460;-57
2024/03/18 07:06:05;;;;;;;15.80;11.90;;;13.10;99.90;;;;;;5076977;28;20453;-57
2024/03/18 07:08:32;;;;;;;16.57;11.80;;;13.20;99.90;;;;;;5076438;28;20840;-57
2024/03/18 07:10:58;;;;;;;15.30;10.90;;;13.30;99.90;;;;;;5076658;28;20452;-57
2024/03/18 07:13:25;;;;;;;20.27;12.57;;;13.40;99.90;;;;;;5076803;28;20488;-57
2024/03/18 07:15:54;;;;;;;20.77;14.20;;;13.50;99.90;;;;;;5076845;28;20462;-57
2024/03/18 07:18:21;;;;;;;21.77;15.30;;;13.50;99.90;;;;;;5076761;28;20519;-57
2024/03/18 07:20:49;;;;;;;18.30;14.30;;;13.60;99.90;;;;;;5076752;28;20450;-57
2024/03/18 07:23:17;;;;;;;20.00;12.70;;;13.60;99.90;;;;;;5076699;28;20440;-57
2024/03/18 07:25:44;;;;;;;19.13;14.23;;;13.70;99.90;;;;;;5076641;28;20480;-57
2024/03/18 07:28:11;;;;;;;18.50;12.83;;;13.70;99.90;;;;;;5076411;28;20538;-57
2024/03/18 07:30:38;;;;;;;17.83;13.33;;;13.80;99.90;;;;;;5076462;28;20447;-57
2024/03/18 07:33:06;;;;;;;15.50;11.97;;;13.80;99.90;;;;;;5076751;28;20480;-57
2024/03/18 07:35:34;;;;;;;14.00;11.37;;;13.90;99.90;;;;;;5076189;28;20540;-57
2024/03/18 07:38:01;;;;;;;10.07;8.43;;;14.00;99.90;;;;;;5075849;28;21120;-57
2024/03/18 07:40:28;;;;;;;16.50;12.13;;;14.10;99.90;;;;;;5076105;28;20443;-57
2024/03/18 07:42:55;;;;;;;11.13;9.70;;;14.20;99.90;;;;;;5075821;28;20437;-57
2024/03/18 07:45:22;;;;;;;12.90;9.13;;;14.30;99.90;;;;;;5075817;28;20814;-57
2024/03/18 07:47:49;;;;;;;12.87;10.67;;;14.40;99.90;;;;;;5075932;28;20468;-56
2024/03/18 07:50:17;;;;;;;11.10;9.93;;;14.50;99.90;;;;;;5075968;28;20445;-57
2024/03/18 07:52:43;;;;;;;16.70;10.10;;;14.50;99.90;;;;;;5075830;28;20484;-57
2024/03/18 07:55:11;;;;;;;16.30;9.27;;;14.60;99.90;;;;;;5075903;28;20451;-57
2024/03/18 07:57:38;;;;;;;13.47;9.90;;;14.60;99.90;;;;;;5075583;28;20457;-57
2024/03/18 08:00:07;;;;;;;11.07;8.50;;;14.70;99.90;;;;;;5075919;28;20444;-57
2024/03/18 08:02:34;;;;;;;11.27;8.93;;;14.70;99.90;;;;;;5075826;28;20495;-57
2024/03/18 08:05:01;;;;;;;13.30;10.30;;;14.70;99.90;;;;;;5075507;28;20937;-57
2024/03/18 08:07:29;;;;;;;16.40;10.37;;;14.80;99.90;;;;;;5074062;28;20966;-56
2024/03/18 08:09:56;;;;;;;11.40;9.60;;;14.90;99.90;;;;;;5075672;28;20445;-57
2024/03/18 08:12:23;;;;;;;9.67;8.67;;;15.00;99.90;;;;;;5075675;28;20480;-57
2024/03/18 08:14:50;;;;;;;10.10;8.23;;;15.10;99.90;;;;;;5075699;28;20444;-57
2024/03/18 08:17:18;;;;;;;13.53;10.10;;;15.20;99.90;;;;;;5075555;28;20817;-57
2024/03/18 08:19:45;;;;;;;9.97;9.00;;;15.30;99.90;;;;;;5075256;28;20444;-57
2024/03/18 08:22:13;;;;;;;9.17;8.27;;;15.40;99.90;;;;;;5075353;28;20437;-57
2024/03/18 08:24:42;;;;;;;8.03;7.17;;;15.50;99.90;;;;;;5075306;28;20445;-57
2024/03/18 08:27:09;;;;;;;9.53;7.50;;;15.60;99.90;;;;;;5075382;28;20456;-57
2024/03/18 08:29:36;;;;;;;9.83;8.50;;;15.70;99.90;;;;;;5075122;28;20476;-57
2024/03/18 08:32:03;;;;;;;11.67;8.47;;;15.80;99.90;;;;;;5075054;28;20484;-57
2024/03/18 08:34:30;;;;;;;10.53;8.00;;;15.90;99.90;;;;;;5075209;28;20543;-57
2024/03/18 08:36:57;;;;;;;8.63;7.70;;;15.80;99.90;;;;;;5075247;28;20448;-57
2024/03/18 08:39:24;;;;;;;9.20;8.03;;;15.80;99.90;;;;;;5074740;28;20882;-57
2024/03/18 08:41:52;;;;;;;11.87;8.13;;;15.90;99.90;;;;;;5075117;28;20447;-57
2024/03/18 08:44:19;;;;;;;11.23;8.20;;;15.90;99.90;;;;;;5074896;28;20958;-57
2024/03/18 08:46:46;;;;;;;13.50;8.43;;;16.00;99.90;;;;;;5074926;28;20448;-57
2024/03/18 08:49:14;;;;;;;9.00;8.10;;;16.00;99.90;;;;;;5074432;28;20986;-57
2024/03/18 08:51:41;;;;;;;11.77;8.70;;;16.00;99.90;;;;;;5074954;28;20452;-57
2024/03/18 08:54:08;;;;;;;11.53;7.97;;;16.00;99.90;;;;;;5074718;28;20550;-57
2024/03/18 08:56:34;;;;;;;13.03;8.10;;;15.90;99.90;;;;;;5074483;28;20452;-57
2024/03/18 08:59:03;;;;;;;14.20;8.30;;;16.00;99.90;;;;;;5074641;28;20472;-57
2024/03/18 09:01:29;;;;;;;8.20;6.57;;;16.00;99.90;;;;;;5074624;28;20437;-57
2024/03/18 09:03:56;;;;;;;8.90;7.37;;;16.00;99.90;;;;;;5074287;28;20935;-56
2024/03/18 09:06:23;;;;;;;10.13;7.50;;;16.10;99.90;;;;;;5074240;28;20939;-56
2024/03/18 09:08:50;;;;;;;10.13;7.53;;;16.00;99.90;;;;;;5074460;28;20500;-57
2024/03/18 09:11:17;;;;;;;9.23;7.57;;;16.00;99.90;;;;;;5074370;28;20467;-56
2024/03/18 09:13:44;;;;;;;9.50;7.60;;;16.00;99.90;;;;;;5073959;28;21001;-57
2024/03/18 09:16:13;;;;;;;9.17;7.00;;;16.00;99.90;;;;;;5074299;28;20459;-56
2024/03/18 09:18:39;;;;;;;8.73;7.23;;;15.90;99.90;;;;;;5074028;28;20571;-57
2024/03/18 09:21:06;;;;;;;8.20;7.00;;;15.90;99.90;;;;;;5074393;28;20447;-57
2024/03/18 09:23:33;;;;;;;8.20;6.60;;;15.80;99.90;;;;;;5074212;28;20437;-57
2024/03/18 09:26:00;;;;;;;8.50;7.20;;;15.80;99.90;;;;;;5074137;28;20441;-56
2024/03/18 09:28:27;;;;;;;10.90;8.00;;;15.80;99.90;;;;;;5073720;28;20465;-57
2024/03/18 09:31:00;;;;;;;9.23;7.90;;;15.90;99.90;;;;;;5073965;28;20448;-56
2024/03/18 09:33:29;;;;;;;10.07;7.20;;;16.00;99.90;;;;;;5073861;28;20480;-57
2024/03/18 09:35:56;;;;;;;9.77;7.30;;;16.20;99.90;;;;;;5073669;28;20938;-57
2024/03/18 09:38:23;;;;;;;10.13;7.00;;;16.30;99.90;;;;;;5073609;28;20464;-56
2024/03/18 09:40:51;;;;;;;11.40;7.03;;;16.50;99.90;;;;;;5073877;28;20441;-57
2024/03/18 09:43:18;;;;;;;8.10;6.07;;;16.60;99.90;;;;;;5073864;28;20451;-57
2024/03/18 09:45:45;;;;;;;11.80;6.90;;;16.60;99.90;;;;;;5073782;28;20536;-56
2024/03/18 09:48:15;;;;;;;6.47;5.83;;;16.50;99.90;;;;;;5073358;28;20465;-56
2024/03/18 09:50:44;;;;;;;9.97;6.20;;;16.50;99.90;;;;;;5073749;28;20435;-57
2024/03/18 09:53:11;;;;;;;10.33;6.00;;;16.50;99.90;;;;;;5073277;28;20998;-57
2024/03/18 09:55:38;;;;;;;9.03;5.87;;;16.50;99.90;;;;;;5073626;28;20449;-57
2024/03/18 09:58:13;;;;;;;6.80;5.70;;;16.60;99.90;;;;;;5073544;28;20468;-57
2024/03/18 10:00:40;;;;;;;5.40;4.60;;;16.60;99.90;;;;;;5073594;28;20433;-57
2024/03/18 10:03:15;;;;;;;8.33;5.07;;;16.60;99.90;;;;;;5073533;28;20446;-56
2024/03/18 10:05:44;;;;;;;9.90;5.07;;;16.60;99.90;;;;;;5073551;28;20420;-57
2024/03/18 10:08:14;;;;;;;8.60;5.00;;;16.50;99.90;;;;;;5073127;28;20840;-56
2024/03/18 10:10:44;;;;;;;8.17;3.77;;;16.60;99.90;;;;;;5073541;28;20433;-56
2024/03/18 10:13:11;;;;;;;6.27;4.67;;;16.80;99.90;;;;;;5073909;28;20512;-56
2024/03/18 10:15:39;;;;;;;8.47;4.10;;;17.10;99.90;;;;;;5073948;28;20440;-56
2024/03/18 10:18:10;;;;;;;8.20;4.20;;;17.40;99.90;;;;;;5073652;28;20460;-57
2024/03/18 10:20:37;;;;;;;3.83;3.07;;;17.50;99.90;;;;;;5073350;28;20421;-57
2024/03/18 10:23:09;;;;;;;5.13;3.13;;;17.60;98.30;;;;;;5073140;28;20960;-55
2024/03/18 10:25:36;;;;;;;7.73;3.20;;;17.80;96.80;;;;;;5073096;28;20512;-56
2024/03/18 10:28:05;;;;;;;6.00;3.30;;;17.90;96.90;;;;;;5073161;28;20901;-57
2024/03/18 10:30:32;;;;;;;8.53;2.90;;;17.90;96.60;;;;;;5072529;28;20444;-57
2024/03/18 10:32:59;;;;;;;5.33;2.57;;;17.80;95.70;;;;;;5073155;28;20511;-57
2024/03/18 10:35:27;;;;;;;7.30;3.20;;;17.60;96.50;;;;;;5073494;28;20562;-57
2024/03/18 10:37:55;;;;;;;4.37;2.20;;;17.70;97.00;;;;;;5073205;28;20457;-57
2024/03/18 10:40:34;;;;;;;3.93;2.00;;;17.80;95.90;;;;;;5073297;28;20480;-57
2024/03/18 10:43:03;;;;;;;3.20;1.80;;;17.90;94.70;;;;;;5073254;28;20504;-57
2024/03/18 10:45:31;;;;;;;5.50;2.60;;;17.60;94.60;;;;;;5073126;28;20451;-57
2024/03/18 10:48:01;;;;;;;6.17;2.70;;;17.50;94.70;;;;;;5072704;28;20979;-56
2024/03/18 10:50:29;;;;;;;4.73;2.80;;;17.40;93.90;;;;;;5072781;28;20440;-57
2024/03/18 10:52:56;;;;;;;3.93;3.07;;;17.50;94.20;;;;;;5073154;28;20550;-57
2024/03/18 10:55:24;;;;;;;7.13;3.50;;;17.80;93.30;;;;;;5073049;28;20450;-57
2024/03/18 10:57:54;;;;;;;7.70;3.10;;;18.40;93.70;;;;;;5072593;28;20468;-57
2024/03/18 11:00:22;;;;;;;4.03;3.40;;;18.90;90.50;;;;;;5073132;28;20441;-57
2024/03/18 11:02:57;;;;;;;4.57;2.97;;;19.00;89.80;;;;;;5072748;28;20819;-57
2024/03/18 11:05:26;;;;;;;7.20;3.43;;;19.30;87.30;;;;;;5073051;28;20421;-57
2024/03/18 11:07:55;;;;;;;5.47;3.30;;;19.50;83.90;;;;;;5072920;28;20474;-56
2024/03/18 11:10:23;;;;;;;4.30;3.07;;;19.60;84.40;;;;;;5072608;28;20928;-57
2024/03/18 11:12:50;;;;;;;3.47;2.63;;;20.00;85.60;;;;;;5073561;28;20455;-56
2024/03/18 11:15:21;;;;;;;4.73;3.17;;;20.40;81.60;;;;;;5072892;28;20440;-57
2024/03/18 11:17:49;;;;;;;4.17;3.23;;;21.00;78.30;;;;;;5072415;28;20468;-57
2024/03/18 11:20:19;;;;;;;3.20;2.90;;;21.60;77.70;;;;;;5072848;28;20445;-57
2024/03/18 11:22:47;;;;;;;4.47;3.10;;;21.90;72.30;;;;;;5072803;28;20447;-57
2024/03/18 11:25:19;;;;;;;4.90;2.70;;;22.30;69.50;;;;;;5072773;28;20437;-57
2024/03/18 11:27:50;;;;;;;3.73;2.90;;;22.50;65.40;;;;;;5072687;28;20514;-57
2024/03/18 11:30:29;;;;;;;4.67;3.13;;;23.00;63.80;;;;;;5072561;28;20527;-57
2024/03/18 11:32:57;;;;;;;4.53;3.30;;;23.70;63.40;;;;;;5073000;28;20483;-57
2024/03/18 11:35:24;;;;;;;4.23;2.50;;;24.10;58.60;;;;;;5072761;28;20472;-57
2024/03/18 11:37:51;;;;;;;4.77;2.20;;;24.60;55.50;;;;;;5072584;28;20532;-56
2024/03/18 11:40:20;;;;;;;3.30;2.20;;;24.80;55.20;;;;;;5072747;28;20436;-57
2024/03/18 11:42:48;;;;;;;4.20;2.00;;;24.90;52.70;;;;;;5076037;28;20479;-57
2024/03/18 11:45:19;;;;;;;4.30;2.33;;;25.00;51.70;;;;;;5075717;28;20827;-57
2024/03/18 11:47:48;;;;;;;2.67;2.10;;;25.40;50.20;;;;;;5075724;28;20460;-55
2024/03/18 11:50:16;;;;;;;5.57;4.43;;;26.00;50.60;;;;;;5075984;28;20448;-55
2024/03/18 11:52:44;;;;;;;5.77;5.07;;;26.50;50.40;;;;;;5076017;28;20444;-55
2024/03/18 11:55:15;;;;;;;6.40;5.60;;;26.20;50.40;;;;;;5075828;28;20476;-55
2024/03/18 11:57:43;;;;;;;7.83;5.63;;;25.40;51.80;;;;;;5075534;28;20468;-55
2024/03/18 12:00:12;;;;;;;7.00;5.57;;;24.40;53.40;;;;;;5075897;28;20482;-55
2024/03/18 12:02:41;;;;;;;6.57;5.27;;;23.20;56.40;;;;;;5075901;28;20539;-55
2024/03/18 12:05:10;;;;;;;5.20;4.50;;;22.30;59.00;;;;;;5075830;28;20441;-55
2024/03/18 12:07:38;;;;;;;4.57;4.03;;;22.10;59.90;;;;;;5075670;28;20451;-56
2024/03/18 12:10:07;;;;;;;5.43;4.57;;;22.70;58.80;;;;;;5075329;28;20448;-57
2024/03/18 12:12:34;;;;;;;5.77;4.30;;;23.10;56.50;;;;;;5075366;28;20448;-57
2024/03/18 12:15:02;;;;;;;4.50;3.80;;;23.50;55.30;;;;;;5075638;28;20488;-57
2024/03/18 12:17:29;;;;;;;3.50;3.13;;;24.00;52.30;;;;;;5075469;28;20445;-56
2024/03/18 12:20:00;;;;;;;4.63;3.20;;;24.50;52.10;;;;;;5075590;28;20532;-55
2024/03/18 12:22:29;;;;;;;6.00;3.60;;;24.90;50.50;;;;;;5075766;28;20429;-55
2024/03/18 12:30:31;;;;;;;3.83;3.43;;;25.70;49.40;;;;;;5075584;28;20759;-55
2024/03/18 12:32:58;;;;;;;8.20;4.83;;;26.50;47.90;;;;;;5075967;28;20471;-55
2024/03/18 12:35:27;;;;;;;5.90;5.27;;;26.30;47.20;;;;;;5075303;28;20484;-55
2024/03/18 12:37:57;;;;;;;8.50;5.87;;;25.50;49.00;;;;;;5075150;28;20467;-55
2024/03/18 12:40:24;;;;;;;7.17;5.53;;;25.60;50.90;;;;;;5075151;28;20445;-55
2024/03/18 12:42:52;;;;;;;6.00;5.40;;;26.50;49.90;;;;;;5075044;28;20451;-55
2024/03/18 12:45:20;;;;;;;5.63;5.00;;;26.70;48.50;;;;;;5075175;28;20436;-55
2024/03/18 12:47:48;;;;;;;7.30;6.57;;;26.20;47.40;;;;;;5074982;28;20461;-55